createdAt,value
2017-06-22T00:01:38.401Z,11.30
2017-06-22T00:04:06.687Z,8.17
2017-06-22T00:06:35.087Z,9.10
2017-06-22T00:09:04.138Z,8.43
2017-06-22T00:11:33.688Z,9.13
2017-06-22T00:14:02.156Z,8.07
2017-06-22T00:16:30.472Z,7.87
2017-06-22T00:18:58.746Z,8.10
2017-06-22T00:21:27.094Z,8.20
2017-06-22T00:23:55.370Z,8.43
2017-06-22T00:26:23.668Z,9.40
2017-06-22T00:28:52.774Z,10.37
2017-06-22T00:31:21.055Z,13.80
2017-06-22T00:33:49.343Z,11.00
2017-06-22T00:36:17.700Z,12.07
2017-06-22T00:38:45.978Z,10.33
2017-06-22T00:41:15.614Z,9.30
2017-06-22T00:43:44.210Z,9.33
2017-06-22T00:46:12.491Z,12.27
2017-06-22T00:48:40.775Z,10.90
2017-06-22T00:51:09.873Z,10.37
2017-06-22T00:53:38.178Z,16.13
2017-06-22T00:56:06.494Z,12.10
2017-06-22T00:58:36.351Z,10.53
2017-06-22T01:01:04.670Z,10.33
2017-06-22T01:03:32.962Z,10.77
2017-06-22T01:06:01.299Z,10.57
2017-06-22T01:08:29.578Z,9.80
2017-06-22T01:10:58.667Z,9.00
2017-06-22T01:13:26.987Z,9.23
2017-06-22T01:15:55.294Z,9.47
2017-06-22T01:18:23.596Z,11.80
2017-06-22T01:20:52.346Z,10.03
2017-06-22T01:23:22.220Z,11.40
2017-06-22T01:25:50.499Z,8.80
2017-06-22T01:28:19.194Z,8.77
2017-06-22T01:30:48.822Z,10.00
2017-06-22T01:33:17.752Z,9.83
2017-06-22T01:35:46.074Z,8.73
2017-06-22T01:38:14.354Z,10.50
2017-06-22T01:40:44.163Z,10.43
2017-06-22T01:43:13.219Z,9.50
2017-06-22T01:45:41.891Z,9.27
2017-06-22T01:48:10.937Z,9.63
2017-06-22T01:50:39.279Z,10.33
2017-06-22T01:53:08.918Z,9.73
2017-06-22T01:55:37.094Z,10.10
2017-06-22T01:58:05.717Z,11.33
2017-06-22T02:00:35.572Z,13.87
2017-06-22T02:03:04.049Z,15.33
2017-06-22T02:05:32.381Z,13.90
2017-06-22T02:08:02.191Z,14.40
2017-06-22T02:10:30.572Z,18.77
2017-06-22T02:12:58.902Z,14.27
2017-06-22T02:15:27.622Z,17.50
2017-06-22T02:17:57.054Z,20.17
2017-06-22T02:20:26.187Z,23.70
2017-06-22T02:22:55.975Z,24.40
2017-06-22T02:25:25.031Z,16.37
2017-06-22T02:27:54.727Z,17.07
2017-06-22T02:30:22.904Z,17.53
2017-06-22T02:32:51.198Z,19.53
2017-06-22T02:35:19.711Z,15.83
2017-06-22T02:37:48.762Z,17.27
2017-06-22T02:40:17.059Z,14.20
2017-06-22T02:42:45.396Z,15.20
2017-06-22T02:45:13.683Z,21.77
2017-06-22T02:47:42.374Z,18.23
2017-06-22T02:50:12.396Z,15.77
2017-06-22T02:52:41.446Z,21.03
2017-06-22T02:55:11.090Z,19.70
2017-06-22T02:57:39.791Z,24.40
2017-06-22T03:00:08.117Z,23.33
2017-06-22T03:02:37.939Z,20.90
2017-06-22T03:05:08.807Z,16.93
2017-06-22T03:07:49.819Z,18.63
2017-06-22T03:10:18.339Z,23.20
2017-06-22T03:12:46.635Z,21.80
2017-06-22T03:15:14.923Z,16.53
2017-06-22T03:17:43.262Z,22.63
2017-06-22T03:20:11.550Z,19.63
2017-06-22T03:22:40.979Z,19.10
2017-06-22T03:25:09.479Z,15.93
2017-06-22T03:27:37.793Z,17.30
2017-06-22T03:30:07.454Z,15.47
2017-06-22T03:32:36.107Z,13.30
2017-06-22T03:35:04.437Z,16.37
2017-06-22T03:37:33.532Z,12.73
2017-06-22T03:40:01.896Z,15.17
2017-06-22T03:42:31.694Z,12.90
2017-06-22T03:44:59.986Z,13.27
2017-06-22T03:47:28.420Z,14.87
2017-06-22T03:49:56.710Z,13.47
2017-06-22T03:52:26.139Z,16.80
2017-06-22T03:54:55.246Z,16.50
2017-06-22T03:57:24.316Z,15.27
2017-06-22T03:59:52.642Z,14.10
2017-06-22T04:02:20.974Z,14.37
2017-06-22T04:04:49.262Z,18.37
2017-06-22T04:07:17.558Z,19.17
2017-06-22T04:09:47.562Z,19.30
2017-06-22T04:12:16.991Z,19.20
2017-06-22T04:14:46.051Z,22.40
2017-06-22T04:17:14.387Z,23.63
2017-06-22T04:19:44.026Z,33.27
2017-06-22T04:22:13.339Z,62.17
2017-06-22T04:24:41.831Z,22.47
2017-06-22T04:27:11.634Z,22.90
2017-06-22T04:29:39.922Z,23.10
2017-06-22T04:32:08.298Z,24.53
2017-06-22T04:34:36.639Z,24.07
2017-06-22T04:37:04.963Z,22.00
2017-06-22T04:39:33.344Z,19.33
2017-06-22T04:42:02.406Z,18.13
2017-06-22T04:44:31.479Z,19.47
2017-06-22T04:47:01.190Z,19.57
2017-06-22T04:49:29.744Z,18.13
2017-06-22T04:51:59.539Z,19.70
2017-06-22T04:54:27.894Z,20.00
2017-06-22T04:56:57.547Z,20.60
2017-06-22T04:59:26.118Z,17.83
2017-06-22T05:01:55.255Z,18.50
2017-06-22T05:04:24.910Z,17.00
2017-06-22T05:06:53.501Z,19.60
2017-06-22T05:09:21.852Z,19.53
2017-06-22T05:11:50.154Z,19.90
2017-06-22T05:14:19.794Z,23.50
2017-06-22T05:16:48.718Z,20.83
2017-06-22T05:19:18.151Z,19.40
2017-06-22T05:21:46.444Z,25.20
2017-06-22T05:24:14.927Z,17.77
2017-06-22T05:26:44.731Z,19.87
2017-06-22T05:29:14.378Z,25.20
2017-06-22T05:31:44.331Z,21.07
2017-06-22T05:34:13.400Z,18.30
2017-06-22T05:36:43.051Z,23.80
2017-06-22T05:39:12.124Z,21.93
2017-06-22T05:41:40.839Z,20.30
2017-06-22T05:44:09.923Z,20.90
2017-06-22T05:46:39.410Z,19.97
2017-06-22T05:49:09.222Z,18.60
2017-06-22T05:51:37.540Z,17.67
2017-06-22T05:54:05.931Z,18.90
2017-06-22T05:56:35.017Z,22.90
2017-06-22T05:59:03.758Z,31.43
2017-06-22T06:01:32.092Z,24.20
2017-06-22T06:04:00.396Z,17.47
2017-06-22T06:06:28.683Z,30.23
2017-06-22T06:08:58.526Z,26.90
2017-06-22T06:11:26.825Z,18.07
2017-06-22T06:13:55.111Z,16.27
2017-06-22T06:16:23.451Z,14.73
2017-06-22T06:18:51.768Z,20.80
2017-06-22T06:21:20.851Z,14.00
2017-06-22T06:23:50.702Z,14.33
2017-06-22T06:26:20.132Z,12.70
2017-06-22T06:28:49.559Z,16.57
2017-06-22T06:31:17.910Z,20.07
2017-06-22T06:33:47.354Z,15.67
2017-06-22T06:36:15.643Z,15.00
2017-06-22T06:38:44.227Z,12.80
2017-06-22T06:41:12.523Z,16.63
2017-06-22T06:43:41.960Z,17.93
2017-06-22T06:46:10.379Z,18.03
2017-06-22T06:48:40.183Z,12.30
2017-06-22T06:51:08.479Z,13.83
2017-06-22T06:53:37.224Z,13.47
2017-06-22T06:56:05.563Z,12.10
2017-06-22T06:58:34.287Z,14.30
2017-06-22T07:01:02.640Z,16.67
2017-06-22T07:03:30.935Z,15.90
2017-06-22T07:05:59.990Z,17.00
2017-06-22T07:08:29.227Z,11.93
2017-06-22T07:10:57.514Z,13.33
2017-06-22T07:13:25.807Z,16.47
2017-06-22T07:15:55.247Z,11.37
2017-06-22T07:18:23.550Z,13.93
2017-06-22T07:20:51.852Z,19.43
2017-06-22T07:23:20.645Z,17.50
2017-06-22T07:25:48.944Z,11.77
2017-06-22T07:28:17.994Z,13.40
2017-06-22T07:30:46.335Z,10.97
2017-06-22T07:33:16.149Z,11.73
2017-06-22T07:35:44.826Z,14.00
2017-06-22T07:38:13.195Z,16.50
2017-06-22T07:40:41.875Z,12.60
2017-06-22T07:43:10.571Z,16.00
2017-06-22T07:45:39.671Z,14.13
2017-06-22T07:48:09.319Z,14.30
2017-06-22T07:50:37.901Z,14.57
2017-06-22T07:53:07.039Z,14.00
2017-06-22T07:55:35.361Z,12.00
2017-06-22T07:58:03.684Z,13.60
2017-06-22T08:00:33.460Z,10.60
2017-06-22T08:03:01.631Z,10.33
2017-06-22T08:05:29.919Z,12.27
2017-06-22T08:07:58.247Z,8.77
2017-06-22T08:10:26.923Z,13.17
2017-06-22T08:12:55.975Z,9.37
2017-06-22T08:15:24.892Z,8.70
2017-06-22T08:17:53.227Z,9.47
2017-06-22T08:20:21.936Z,12.40
2017-06-22T08:22:51.063Z,11.90
2017-06-22T08:25:19.461Z,9.53
2017-06-22T08:27:48.540Z,9.17
2017-06-22T08:30:17.319Z,9.23
2017-06-22T08:32:46.008Z,8.57
2017-06-22T08:35:14.711Z,10.63
2017-06-22T08:38:01.524Z,10.00
2017-06-22T08:40:29.831Z,10.23
2017-06-22T08:45:59.624Z,9.20
2017-06-22T08:48:29.416Z,9.53
2017-06-22T08:50:57.701Z,9.57
2017-06-22T08:53:26.443Z,11.00
2017-06-22T08:55:54.731Z,13.80
2017-06-22T08:58:24.526Z,8.57
2017-06-22T09:00:52.873Z,10.27
2017-06-22T09:03:21.963Z,8.87
2017-06-22T09:05:51.015Z,9.30
2017-06-22T09:08:20.715Z,9.37
2017-06-22T09:10:49.635Z,9.37
2017-06-22T09:13:18.691Z,9.30
2017-06-22T09:15:47.019Z,12.80
2017-06-22T09:18:16.820Z,10.30
2017-06-22T09:20:46.458Z,10.67
2017-06-22T09:23:15.806Z,11.60
2017-06-22T09:25:44.866Z,11.13
2017-06-22T09:28:14.288Z,9.30
2017-06-22T09:30:44.570Z,10.03
2017-06-22T09:33:13.615Z,10.40
2017-06-22T09:35:41.903Z,10.40
2017-06-22T09:38:10.315Z,9.77
2017-06-22T09:40:39.959Z,9.20
2017-06-22T09:43:08.520Z,9.43
2017-06-22T09:45:37.020Z,10.00
2017-06-22T09:48:06.092Z,10.87
2017-06-22T09:50:35.750Z,10.20
2017-06-22T09:53:04.459Z,12.33
2017-06-22T09:55:32.753Z,9.80
2017-06-22T09:58:01.036Z,8.83
2017-06-22T10:00:30.495Z,10.57
2017-06-22T10:02:58.774Z,9.83
2017-06-22T10:05:27.055Z,10.73
2017-06-22T10:07:55.659Z,10.20
2017-06-22T10:10:23.962Z,11.37
2017-06-22T10:12:52.263Z,11.30
2017-06-22T10:15:22.566Z,10.17
2017-06-22T10:17:50.880Z,10.37
2017-06-22T10:20:19.191Z,10.63
2017-06-22T10:22:48.898Z,9.67
2017-06-22T10:25:18.426Z,12.90
2017-06-22T10:27:46.591Z,10.63
2017-06-22T10:30:15.160Z,9.77
2017-06-22T10:32:44.211Z,10.63
2017-06-22T10:35:14.015Z,13.23
2017-06-22T10:37:42.363Z,10.53
2017-06-22T10:40:12.026Z,11.50
2017-06-22T10:42:40.600Z,11.27
2017-06-22T10:45:10.731Z,10.80
2017-06-22T10:47:40.792Z,11.60
2017-06-22T10:50:09.093Z,11.77
2017-06-22T10:52:37.866Z,10.90
2017-06-22T10:55:07.528Z,11.23
2017-06-22T10:57:35.714Z,10.50
2017-06-22T11:00:04.082Z,16.03
2017-06-22T11:02:33.776Z,9.43
2017-06-22T11:05:02.368Z,11.50
2017-06-22T11:07:31.514Z,12.47
2017-06-22T11:09:59.836Z,11.43
2017-06-22T11:12:28.919Z,13.43
2017-06-22T11:14:58.040Z,11.13
2017-06-22T11:17:27.698Z,15.43
2017-06-22T11:19:56.255Z,10.10
2017-06-22T11:22:24.595Z,10.50
2017-06-22T11:24:52.888Z,10.80
2017-06-22T11:27:21.180Z,10.83
2017-06-22T11:29:49.528Z,9.63
2017-06-22T11:32:19.207Z,10.33
2017-06-22T11:34:47.373Z,14.60
2017-06-22T11:37:15.728Z,10.03
2017-06-22T11:39:44.010Z,9.83
2017-06-22T11:42:12.319Z,10.60
2017-06-22T11:44:41.812Z,15.33
2017-06-22T11:47:10.120Z,10.37
2017-06-22T11:49:38.427Z,11.70
2017-06-22T11:52:06.791Z,10.30
2017-06-22T11:54:35.881Z,10.23
2017-06-22T11:57:04.941Z,9.60
2017-06-22T11:59:34.101Z,10.50
2017-06-22T12:02:02.384Z,10.83
2017-06-22T12:04:32.219Z,12.27
2017-06-22T12:07:00.560Z,10.83
2017-06-22T12:09:28.873Z,10.97
2017-06-22T12:11:57.187Z,11.17
2017-06-22T12:14:25.948Z,13.30
2017-06-22T12:16:55.811Z,16.40
2017-06-22T12:19:25.731Z,9.23
2017-06-22T12:21:55.529Z,10.70
2017-06-22T12:24:24.631Z,11.70
2017-06-22T12:26:53.719Z,10.10
2017-06-22T12:29:23.425Z,13.53
2017-06-22T12:31:51.663Z,10.57
2017-06-22T12:34:20.346Z,10.73
2017-06-22T12:36:49.075Z,9.90
2017-06-22T12:39:17.757Z,10.20
2017-06-22T12:41:47.390Z,10.93
2017-06-22T12:44:16.011Z,10.80
2017-06-22T12:46:45.096Z,9.97
2017-06-22T12:49:13.408Z,9.57
2017-06-22T12:51:42.531Z,9.90
2017-06-22T12:54:12.347Z,11.00
2017-06-22T12:56:41.400Z,10.43
2017-06-22T12:59:09.734Z,14.03
2017-06-22T13:01:39.179Z,9.87
2017-06-22T13:04:07.504Z,10.07
2017-06-22T13:06:37.212Z,10.67
2017-06-22T13:09:06.174Z,11.53
2017-06-22T13:11:36.078Z,12.87
2017-06-22T13:14:04.469Z,10.23
2017-06-22T13:16:33.566Z,11.90
2017-06-22T13:19:02.631Z,11.63
2017-06-22T13:21:31.823Z,12.50
2017-06-22T13:24:01.481Z,10.07
2017-06-22T13:26:29.679Z,10.20
2017-06-22T13:28:58.022Z,10.90
2017-06-22T13:31:29.068Z,11.33
2017-06-22T13:33:58.176Z,11.33
2017-06-22T13:36:27.855Z,10.70
2017-06-22T13:38:56.418Z,11.37
2017-06-22T13:41:25.479Z,10.60
2017-06-22T13:43:54.622Z,10.60
2017-06-22T13:46:23.331Z,15.37
2017-06-22T13:51:21.908Z,11.37
2017-06-22T13:53:50.226Z,10.77
2017-06-22T13:56:19.287Z,10.70
2017-06-22T13:58:47.650Z,11.70
2017-06-22T14:01:16.727Z,11.30
2017-06-22T14:03:45.418Z,11.33
2017-06-22T14:06:13.788Z,13.07
2017-06-22T14:08:42.127Z,9.90
2017-06-22T14:11:11.788Z,11.87
2017-06-22T14:13:40.070Z,13.93
2017-06-22T14:16:09.126Z,12.13
2017-06-22T14:18:38.939Z,11.80
2017-06-22T14:21:07.295Z,12.40
2017-06-22T14:23:36.009Z,12.27
2017-06-22T14:26:05.039Z,10.97
2017-06-22T14:28:33.826Z,11.73
2017-06-22T14:31:03.331Z,11.77
2017-06-22T14:33:31.623Z,16.50
2017-06-22T14:36:00.003Z,11.67
2017-06-22T14:38:29.653Z,12.27
2017-06-22T14:40:57.827Z,12.77
2017-06-22T14:43:27.343Z,12.67
2017-06-22T14:45:56.420Z,12.13
2017-06-22T14:48:24.716Z,13.17
2017-06-22T14:50:53.831Z,12.57
2017-06-22T14:53:22.141Z,12.23
2017-06-22T14:55:50.436Z,13.20
2017-06-22T14:58:19.185Z,13.03
2017-06-22T15:00:48.245Z,13.10
2017-06-22T15:03:16.531Z,13.13
2017-06-22T15:05:45.454Z,13.30
2017-06-22T15:08:14.874Z,12.50
2017-06-22T15:10:44.531Z,13.77
2017-06-22T15:13:14.090Z,13.17
2017-06-22T15:15:42.676Z,12.50
2017-06-22T15:18:10.987Z,12.43
2017-06-22T15:20:40.151Z,12.70
2017-06-22T15:23:09.813Z,13.10
2017-06-22T15:25:38.395Z,14.23
2017-06-22T15:28:07.647Z,12.07
2017-06-22T15:30:37.514Z,15.10
2017-06-22T15:33:05.835Z,13.40
2017-06-22T15:35:34.228Z,13.43
2017-06-22T15:38:02.523Z,20.63
2017-06-22T15:40:32.316Z,18.20
2017-06-22T15:43:01.098Z,14.67
2017-06-22T15:48:05.362Z,14.20
2017-06-22T15:50:35.023Z,13.63
2017-06-22T15:53:04.127Z,13.60
2017-06-22T15:55:33.944Z,12.63
2017-06-22T15:58:02.615Z,11.40
2017-06-22T16:00:31.671Z,14.80
2017-06-22T16:03:00.352Z,19.27
2017-06-22T16:05:29.050Z,13.97
2017-06-22T16:07:57.347Z,13.23
2017-06-22T16:10:25.719Z,14.03
2017-06-22T16:12:55.155Z,14.63
2017-06-22T16:15:24.235Z,18.70
2017-06-22T16:17:53.781Z,16.17
2017-06-22T16:20:22.092Z,20.10
2017-06-22T16:22:50.390Z,17.17
2017-06-22T16:25:18.746Z,17.77
2017-06-22T16:27:48.174Z,12.60
2017-06-22T16:30:16.459Z,11.60
2017-06-22T16:32:46.463Z,17.13
2017-06-22T16:35:15.023Z,11.20
2017-06-22T16:37:44.091Z,11.90
2017-06-22T16:40:12.452Z,14.93
2017-06-22T16:42:42.127Z,10.77
2017-06-22T16:45:10.283Z,13.63
2017-06-22T16:47:39.829Z,21.27
2017-06-22T16:50:08.886Z,15.03
2017-06-22T16:52:38.529Z,9.83
2017-06-22T16:55:07.171Z,9.20
2017-06-22T16:57:35.855Z,16.90
2017-06-22T17:00:04.157Z,11.87
2017-06-22T17:02:32.509Z,12.87
2017-06-22T17:05:01.563Z,9.13
2017-06-22T17:07:31.189Z,9.73
2017-06-22T17:10:00.303Z,10.23
2017-06-22T17:12:29.939Z,7.73
2017-06-22T17:14:58.483Z,6.73
2017-06-22T17:17:26.842Z,8.20
2017-06-22T17:19:55.153Z,6.50
2017-06-22T17:22:25.837Z,7.33
2017-06-22T17:24:54.587Z,8.40
2017-06-22T17:27:24.256Z,12.53
2017-06-22T17:29:52.411Z,5.83
2017-06-22T17:32:20.823Z,6.40
2017-06-22T17:34:49.107Z,11.07
2017-06-22T17:37:18.735Z,11.33
2017-06-22T17:39:47.852Z,10.80
2017-06-22T17:42:16.161Z,10.97
2017-06-22T17:44:44.431Z,15.20
2017-06-22T17:47:15.245Z,12.07
2017-06-22T17:49:43.524Z,8.97
2017-06-22T17:52:12.203Z,9.00
2017-06-22T17:54:42.043Z,12.27
2017-06-22T17:57:10.635Z,14.30
2017-06-22T17:59:40.300Z,9.73
2017-06-22T18:02:08.946Z,9.43
2017-06-22T18:04:37.295Z,15.60
2017-06-22T18:07:05.608Z,18.43
2017-06-22T18:09:34.541Z,17.90
2017-06-22T18:12:02.885Z,13.97
2017-06-22T18:14:32.675Z,20.07
2017-06-22T18:17:01.015Z,8.87
2017-06-22T18:19:30.655Z,9.67
2017-06-22T18:21:59.199Z,10.00
2017-06-22T18:24:27.658Z,9.20
2017-06-22T18:26:55.942Z,9.80
2017-06-22T18:29:25.747Z,11.33
2017-06-22T18:31:54.091Z,11.13
2017-06-22T18:34:22.420Z,15.70
2017-06-22T18:36:50.721Z,11.53
2017-06-22T18:39:19.104Z,16.13
2017-06-22T18:41:48.890Z,12.23
2017-06-22T18:44:18.536Z,11.47
2017-06-22T18:46:47.127Z,14.30
2017-06-22T18:49:16.771Z,13.60
2017-06-22T18:51:44.935Z,17.20
2017-06-22T18:54:14.795Z,13.47
2017-06-22T18:56:44.591Z,15.97
2017-06-22T18:59:14.270Z,20.20
2017-06-22T19:01:42.883Z,16.70
2017-06-22T19:04:11.190Z,19.20
2017-06-22T19:06:40.296Z,17.80
2017-06-22T19:09:10.229Z,19.63
2017-06-22T19:11:39.320Z,18.23
2017-06-22T19:14:07.635Z,16.57
2017-06-22T19:16:36.426Z,17.23
2017-06-22T19:19:06.273Z,23.43
2017-06-22T19:21:34.579Z,23.67
2017-06-22T19:24:03.401Z,18.60
2017-06-22T19:26:32.088Z,15.80
2017-06-22T19:29:01.738Z,19.40
2017-06-22T19:31:30.452Z,17.50
2017-06-22T19:33:59.572Z,20.83
2017-06-22T19:36:28.655Z,18.20
2017-06-22T19:38:57.309Z,16.60
2017-06-22T19:41:26.836Z,27.20
2017-06-22T19:43:55.720Z,29.03
2017-06-22T19:46:24.878Z,17.80
2017-06-22T19:48:53.187Z,14.90
2017-06-22T19:51:21.511Z,32.50
2017-06-22T19:53:49.935Z,29.23
2017-06-22T19:56:18.222Z,17.53
2017-06-22T19:58:48.020Z,18.00
2017-06-22T20:01:16.347Z,19.00
2017-06-22T20:03:44.642Z,16.33
2017-06-22T20:06:12.934Z,20.13
2017-06-22T20:08:42.046Z,22.00
2017-06-22T20:11:11.100Z,15.20
2017-06-22T20:13:39.420Z,22.03
2017-06-22T20:16:08.160Z,18.10
2017-06-22T20:18:36.470Z,16.93
2017-06-22T20:21:04.782Z,19.27
2017-06-22T20:23:33.123Z,19.40
2017-06-22T20:26:01.442Z,19.93
2017-06-22T20:28:30.855Z,15.40
2017-06-22T20:30:59.186Z,17.57
2017-06-22T20:33:28.239Z,17.67
2017-06-22T20:35:58.027Z,15.37
2017-06-22T20:38:27.717Z,15.67
2017-06-22T20:40:55.886Z,15.87
2017-06-22T20:43:24.212Z,18.30
2017-06-22T20:45:52.870Z,19.07
2017-06-22T20:48:21.567Z,16.50
2017-06-22T20:50:49.863Z,18.77
2017-06-22T20:53:18.567Z,18.07
2017-06-22T20:55:47.251Z,17.57
2017-06-22T20:58:16.303Z,15.00
2017-06-22T21:00:45.621Z,15.43
2017-06-22T21:03:15.888Z,30.73
2017-06-22T21:05:45.310Z,20.20
2017-06-22T21:08:14.450Z,19.70
2017-06-22T21:10:42.739Z,19.00
2017-06-22T21:13:11.026Z,15.60
2017-06-22T21:15:39.642Z,17.23
2017-06-22T21:18:07.964Z,13.37
2017-06-22T21:20:36.289Z,14.87
2017-06-22T21:23:06.009Z,20.37
2017-06-22T21:25:35.532Z,12.67
2017-06-22T21:28:04.142Z,16.23
2017-06-22T21:30:33.871Z,20.57
2017-06-22T21:33:02.804Z,10.97
2017-06-22T21:35:31.853Z,12.67
2017-06-22T21:38:00.214Z,16.57
2017-06-22T21:40:29.854Z,11.70
2017-06-22T21:42:58.782Z,16.50
2017-06-22T21:45:28.260Z,12.13
2017-06-22T21:47:56.543Z,9.53
2017-06-22T21:50:24.831Z,11.33
2017-06-22T21:52:54.771Z,11.97
2017-06-22T21:55:23.063Z,13.23
2017-06-22T21:57:51.352Z,11.37
2017-06-22T22:00:21.791Z,16.40
2017-06-22T22:02:51.461Z,12.83
2017-06-22T22:05:21.098Z,14.30
2017-06-22T22:07:50.095Z,9.50
2017-06-22T22:10:18.377Z,14.50
2017-06-22T22:12:48.011Z,12.07
2017-06-22T22:15:16.642Z,11.17
2017-06-22T22:17:45.695Z,11.47
2017-06-22T22:20:13.984Z,10.37
2017-06-22T22:22:42.349Z,14.63
2017-06-22T22:25:10.659Z,11.20
2017-06-22T22:27:40.187Z,11.20
2017-06-22T22:30:08.584Z,13.57
2017-06-22T22:32:37.284Z,11.80
2017-06-22T22:35:05.599Z,14.80
2017-06-22T22:37:34.755Z,10.03
2017-06-22T22:40:03.047Z,15.43
2017-06-22T22:42:32.682Z,15.03
2017-06-22T22:45:01.939Z,10.07
2017-06-22T22:47:30.224Z,14.43
2017-06-22T22:50:10.175Z,13.40
2017-06-22T22:52:39.249Z,13.20
2017-06-22T22:55:08.319Z,12.93
2017-06-22T22:57:37.089Z,10.63
2017-06-22T23:00:05.859Z,17.73
2017-06-22T23:02:35.567Z,12.93
2017-06-22T23:05:04.312Z,17.50
2017-06-22T23:07:32.598Z,16.87
2017-06-22T23:10:00.884Z,16.60
2017-06-22T23:12:30.347Z,19.03
2017-06-22T23:14:59.030Z,20.37
2017-06-22T23:17:27.322Z,16.63
2017-06-22T23:19:57.251Z,17.83
2017-06-22T23:22:26.894Z,21.10
2017-06-22T23:24:56.416Z,21.40
2017-06-22T23:27:25.422Z,17.40
2017-06-22T23:29:53.727Z,19.43
2017-06-22T23:32:22.018Z,19.67
2017-06-22T23:34:51.150Z,18.83
2017-06-22T23:37:20.203Z,20.10
2017-06-22T23:39:48.503Z,18.20
2017-06-22T23:42:17.597Z,18.93
2017-06-22T23:44:45.886Z,19.10
2017-06-22T23:47:15.312Z,18.43
2017-06-22T23:49:44.042Z,22.23
2017-06-22T23:52:13.692Z,18.10
2017-06-22T23:54:42.260Z,18.93
2017-06-22T23:57:10.691Z,18.70
2017-06-22T23:59:39.018Z,19.40
